Time;durP1;ratioP1;P1;durP2;ratioP2;P2;SDS_P1;SDS_P2;PMS_P1;PMS_P2;Temp;Humidity;BMP_temperature;BMP_pressure;BME280_temperature;BME280_humidity;BME280_pressure;Samples;Min_cycle;Max_cycle;Signal;HPM_P1;HPM_P2
2024/01/13 00:01:06;;;;;;;33.83;13.10;;;;;;;-148.88;100.00;-17125.47;5037272;28;20029;-81
2024/01/13 00:03:31;;;;;;;37.08;14.23;;;;;;;-148.88;100.00;-17125.47;5035782;28;20017;-81
2024/01/13 00:05:56;;;;;;;34.47;14.50;;;;;;;-148.88;100.00;-17125.47;5037254;28;20106;-81
2024/01/13 00:08:22;;;;;;;41.22;13.63;;;;;;;-148.88;100.00;-17125.47;5039575;28;20021;-82
2024/01/13 00:10:47;;;;;;;41.92;13.07;;;;;;;-148.88;100.00;-17125.47;5037156;28;20032;-81
2024/01/13 00:13:12;;;;;;;37.80;13.50;;;;;;;-148.88;100.00;-17125.47;5039703;28;20065;-82
2024/01/13 00:15:37;;;;;;;39.60;12.73;;;;;;;-148.88;100.00;-17125.47;5042450;28;20022;-82
2024/01/13 00:18:03;;;;;;;29.15;12.50;;;;;;;-148.88;100.00;-17125.47;5041824;28;20029;-82
2024/01/13 00:20:28;;;;;;;34.38;12.60;;;;;;;-148.88;100.00;-17125.47;5041642;28;20030;-82
2024/01/13 00:22:54;;;;;;;34.25;12.07;;;;;;;-148.88;100.00;-17125.47;5041703;28;20026;-82
2024/01/13 00:25:19;;;;;;;33.17;13.05;;;;;;;-148.88;100.00;-17125.47;5040989;28;20089;-82
2024/01/13 00:27:44;;;;;;;34.75;11.73;;;;;;;-148.88;100.00;-17125.47;5042030;28;20032;-82
2024/01/13 00:30:10;;;;;;;30.33;11.10;;;;;;;-148.88;100.00;-17125.47;5039664;28;20029;-82
2024/01/13 00:32:35;;;;;;;28.13;11.60;;;;;;;-148.88;100.00;-17125.47;5039698;28;20021;-81
2024/01/13 00:35:00;;;;;;;28.65;10.95;;;;;;;-148.88;100.00;-17125.47;5036325;28;20045;-81
2024/01/13 00:37:26;;;;;;;25.58;10.52;;;;;;;-148.88;100.00;-17125.47;5039259;28;20052;-82
2024/01/13 00:39:51;;;;;;;32.95;11.27;;;;;;;-148.88;100.00;-17125.47;5041502;28;20025;-82
2024/01/13 00:42:16;;;;;;;26.92;10.80;;;;;;;-148.88;100.00;-17125.47;5043093;28;20025;-82
2024/01/13 00:44:42;;;;;;;31.40;11.68;;;;;;;-148.88;100.00;-17125.47;5043144;28;20029;-82
2024/01/13 00:47:07;;;;;;;29.35;10.40;;;;;;;-148.88;100.00;-17125.47;5044442;28;20029;-82
2024/01/13 00:49:32;;;;;;;28.48;10.35;;;;;;;-148.88;100.00;-17125.47;5046638;28;20431;-82
2024/01/13 00:51:58;;;;;;;25.65;9.45;;;;;;;-148.88;100.00;-17125.47;5044830;28;20488;-82
2024/01/13 00:54:23;;;;;;;27.45;9.50;;;;;;;-148.88;100.00;-17125.47;5039312;28;20456;-82
2024/01/13 00:56:49;;;;;;;20.02;8.73;;;;;;;-148.88;100.00;-17125.47;5039982;28;20090;-82
2024/01/13 00:59:14;;;;;;;23.48;8.85;;;;;;;-148.88;100.00;-17125.47;5039038;28;20037;-82
2024/01/13 01:01:39;;;;;;;25.95;9.27;;;;;;;-148.88;100.00;-17125.47;5039174;28;20067;-82
2024/01/13 01:04:05;;;;;;;25.73;9.73;;;;;;;-148.88;100.00;-17125.47;5039221;28;20021;-82
2024/01/13 01:06:30;;;;;;;24.13;8.75;;;;;;;-148.88;100.00;-17125.47;5037537;28;20022;-82
2024/01/13 01:08:55;;;;;;;24.15;9.05;;;;;;;-148.88;100.00;-17125.47;5036035;28;20108;-82
2024/01/13 01:11:21;;;;;;;20.13;9.25;;;;;;;-148.88;100.00;-17125.47;5035514;28;20477;-82
2024/01/13 01:13:46;;;;;;;22.08;8.98;;;;;;;-148.88;100.00;-17125.47;5033937;28;20021;-82
2024/01/13 01:16:12;;;;;;;19.85;8.27;;;;;;;-148.88;100.00;-17125.47;5035648;28;20034;-82
2024/01/13 01:18:37;;;;;;;20.33;8.27;;;;;;;-148.88;100.00;-17125.47;5035595;28;20032;-82
2024/01/13 01:21:03;;;;;;;19.77;7.63;;;;;;;-148.88;100.00;-17125.47;5037145;28;20488;-82
2024/01/13 01:23:28;;;;;;;23.25;9.20;;;;;;;-148.88;100.00;-17125.47;5037240;28;20063;-82
2024/01/13 01:25:53;;;;;;;18.98;7.10;;;;;;;-148.88;100.00;-17125.47;5036862;28;20054;-82
2024/01/13 01:28:19;;;;;;;18.98;7.32;;;;;;;-148.88;100.00;-17125.47;5037048;28;20152;-82
2024/01/13 01:30:44;;;;;;;18.98;7.57;;;;;;;-148.88;100.00;-17125.47;5035558;28;20029;-82
2024/01/13 01:33:09;;;;;;;16.35;7.43;;;;;;;-148.88;100.00;-17125.47;5037242;28;20036;-82
2024/01/13 01:35:34;;;;;;;21.30;7.35;;;;;;;-148.88;100.00;-17125.47;5037437;28;20026;-82
2024/01/13 01:38:00;;;;;;;19.70;7.10;;;;;;;-148.88;100.00;-17125.47;5035630;28;20099;-82
2024/01/13 01:40:26;;;;;;;15.20;6.30;;;;;;;-148.88;100.00;-17125.47;5036544;28;20030;-82
2024/01/13 01:42:52;;;;;;;16.73;7.28;;;;;;;-148.88;100.00;-17125.47;5037061;28;20017;-82
2024/01/13 01:45:17;;;;;;;16.73;6.82;;;;;;;-148.88;100.00;-17125.47;5035132;28;20095;-82
2024/01/13 01:47:45;;;;;;;16.63;6.32;;;;;;;-148.88;100.00;-17125.47;5034800;28;20025;-82
2024/01/13 01:50:10;;;;;;;16.88;6.13;;;;;;;-148.88;100.00;-17125.47;5033542;28;20212;-82
2024/01/13 01:52:37;;;;;;;15.07;6.10;;;;;;;-148.88;100.00;-17125.47;5034986;28;20112;-82
2024/01/13 01:55:03;;;;;;;17.70;6.32;;;;;;;-148.88;100.00;-17125.47;5035449;28;20116;-83
2024/01/13 01:57:30;;;;;;;12.88;5.45;;;;;;;-148.88;100.00;-17125.47;5035558;28;20026;-83
2024/01/13 01:59:55;;;;;;;14.70;6.60;;;;;;;-148.88;100.00;-17125.47;5034170;28;20431;-82
2024/01/13 02:02:21;;;;;;;16.92;6.18;;;;;;;-148.88;100.00;-17125.47;5035493;28;20021;-82
2024/01/13 02:04:47;;;;;;;15.77;6.53;;;;;;;-148.88;100.00;-17125.47;5035608;28;20029;-83
2024/01/13 02:07:13;;;;;;;15.32;6.78;;;;;;;-148.88;100.00;-17125.47;5034177;28;20029;-83
2024/01/13 02:09:39;;;;;;;12.43;5.22;;;;;;;-148.88;100.00;-17125.47;5035199;28;20017;-82
2024/01/13 02:12:05;;;;;;;16.77;6.00;;;;;;;-148.88;100.00;-17125.47;5034964;28;20041;-83
2024/01/13 02:14:30;;;;;;;13.13;5.45;;;;;;;-148.88;100.00;-17125.47;5035584;28;20018;-83
2024/01/13 02:16:57;;;;;;;12.82;4.88;;;;;;;-148.88;100.00;-17125.47;5035995;28;20040;-83
2024/01/13 02:19:22;;;;;;;12.30;4.97;;;;;;;-148.88;100.00;-17125.47;5035367;28;20104;-83
2024/01/13 02:21:48;;;;;;;13.20;5.72;;;;;;;-148.88;100.00;-17125.47;5034004;28;20104;-82
2024/01/13 02:24:13;;;;;;;12.80;5.22;;;;;;;-148.88;100.00;-17125.47;5032794;28;20112;-83
2024/01/13 02:26:38;;;;;;;14.07;5.28;;;;;;;-148.88;100.00;-17125.47;5035359;28;20025;-83
2024/01/13 02:29:05;;;;;;;13.90;5.57;;;;;;;-148.88;100.00;-17125.47;5035350;28;20059;-83
2024/01/13 02:31:30;;;;;;;11.02;4.38;;;;;;;-148.88;100.00;-17125.47;5034527;28;20025;-83
2024/01/13 02:33:55;;;;;;;10.43;4.72;;;;;;;-148.88;100.00;-17125.47;5034661;28;20028;-83
2024/01/13 02:36:21;;;;;;;15.63;5.75;;;;;;;-148.88;100.00;-17125.47;5034237;28;20044;-83
2024/01/13 02:38:46;;;;;;;11.82;5.05;;;;;;;-148.88;100.00;-17125.47;5034532;28;20044;-83
2024/01/13 02:41:11;;;;;;;10.85;4.97;;;;;;;-148.88;100.00;-17125.47;5034085;28;20125;-83
2024/01/13 02:43:37;;;;;;;15.70;6.80;;;;;;;-148.88;100.00;-17125.47;5033260;28;20116;-83
2024/01/13 02:46:04;;;;;;;12.55;4.95;;;;;;;-148.88;100.00;-17125.47;5033221;28;20021;-83
2024/01/13 02:48:41;;;;;;;13.60;5.38;;;;;;;-148.88;100.00;-17125.47;5034713;28;20030;-83
2024/01/13 02:51:12;;;;;;;9.48;4.30;;;;;;;-148.88;100.00;-17125.47;5032992;28;20049;-83
2024/01/13 02:53:38;;;;;;;14.27;5.50;;;;;;;-148.88;100.00;-17125.47;5033845;28;20384;-83
2024/01/13 02:56:03;;;;;;;12.88;5.82;;;;;;;-148.88;100.00;-17125.47;5033880;28;20025;-83
2024/01/13 02:58:29;;;;;;;14.43;6.13;;;;;;;-148.88;100.00;-17125.47;5033506;28;20033;-83
2024/01/13 03:00:54;;;;;;;11.75;4.88;;;;;;;-148.88;100.00;-17125.47;5034552;28;20057;-83
2024/01/13 03:03:19;;;;;;;12.88;4.88;;;;;;;-148.88;100.00;-17125.47;5034055;28;20028;-83
2024/01/13 03:05:45;;;;;;;13.63;5.65;;;;;;;-148.88;100.00;-17125.47;5034127;28;20017;-83
2024/01/13 03:08:10;;;;;;;11.85;5.55;;;;;;;-148.88;100.00;-17125.47;5033558;28;20029;-83
2024/01/13 03:10:38;;;;;;;9.75;4.78;;;;;;;-148.88;100.00;-17125.47;5032150;28;20067;-83
2024/01/13 03:13:04;;;;;;;11.68;4.05;;;;;;;-148.88;100.00;-17125.47;5033067;28;20026;-83
2024/01/13 03:15:29;;;;;;;11.43;4.07;;;;;;;-148.88;100.00;-17125.47;5033653;28;20033;-83
2024/01/13 03:17:54;;;;;;;10.27;3.72;;;;;;;-148.88;100.00;-17125.47;5033369;28;20400;-83
2024/01/13 03:20:19;;;;;;;9.13;3.97;;;;;;;-148.88;100.00;-17125.47;5032185;28;20033;-83
2024/01/13 03:22:45;;;;;;;8.70;4.07;;;;;;;-148.88;100.00;-17125.47;5033738;28;20120;-83
2024/01/13 03:25:11;;;;;;;9.63;3.97;;;;;;;-148.88;100.00;-17125.47;5033765;28;20111;-83
2024/01/13 03:27:36;;;;;;;10.00;4.22;;;;;;;-148.88;100.00;-17125.47;5032334;28;20107;-83
2024/01/13 03:30:02;;;;;;;11.70;4.30;;;;;;;-148.88;100.00;-17125.47;5032350;28;20072;-83
2024/01/13 03:32:27;;;;;;;11.93;4.93;;;;;;;-148.88;100.00;-17125.47;5033109;28;20037;-83
2024/01/13 03:34:52;;;;;;;9.68;3.50;;;;;;;-148.88;100.00;-17125.47;5033772;28;20480;-83
2024/01/13 03:37:18;;;;;;;9.13;4.03;;;;;;;-148.88;100.00;-17125.47;5033251;28;20032;-83
2024/01/13 03:39:43;;;;;;;8.73;3.50;;;;;;;-148.88;100.00;-17125.47;5031835;28;20025;-83
2024/01/13 03:42:09;;;;;;;9.57;3.50;;;;;;;-148.88;100.00;-17125.47;5033200;28;20028;-83
2024/01/13 03:44:36;;;;;;;8.38;3.45;;;;;;;-148.88;100.00;-17125.47;5033271;28;20057;-83
2024/01/13 03:47:01;;;;;;;9.50;3.40;;;;;;;-148.88;100.00;-17125.47;5033165;28;20029;-83
2024/01/13 03:49:27;;;;;;;9.35;3.65;;;;;;;-148.88;100.00;-17125.47;5033124;28;20385;-83
2024/01/13 03:51:52;;;;;;;8.52;2.85;;;;;;;-148.88;100.00;-17125.47;5032918;28;20022;-83
2024/01/13 03:54:17;;;;;;;6.53;3.05;;;;;;;-148.88;100.00;-17125.47;5033025;28;20065;-83
2024/01/13 03:56:43;;;;;;;10.18;3.58;;;;;;;-148.88;100.00;-17125.47;5033217;28;20112;-83
2024/01/13 03:59:11;;;;;;;7.78;2.83;;;;;;;-148.88;100.00;-17125.47;5033227;28;20096;-83
2024/01/13 04:01:36;;;;;;;9.02;3.40;;;;;;;-148.88;100.00;-17125.47;5032022;28;20026;-83
2024/01/13 04:04:01;;;;;;;8.52;3.00;;;;;;;-148.88;100.00;-17125.47;5032150;28;20021;-83
2024/01/13 04:06:27;;;;;;;8.73;3.53;;;;;;;-148.88;100.00;-17125.47;5037086;28;20070;-83
2024/01/13 04:08:52;;;;;;;7.13;3.00;;;;;;;-148.88;100.00;-17125.47;5036616;28;20045;-83
2024/01/13 04:11:18;;;;;;;6.28;2.70;;;;;;;-148.88;100.00;-17125.47;5036653;28;20047;-83
2024/01/13 04:13:43;;;;;;;6.20;2.47;;;;;;;-148.88;100.00;-17125.47;5035379;28;20052;-83
2024/01/13 04:16:09;;;;;;;6.05;2.63;;;;;;;-148.88;100.00;-17125.47;5037140;28;20132;-82
2024/01/13 04:18:34;;;;;;;7.53;2.63;;;;;;;-148.88;100.00;-17125.47;5036652;28;20036;-83
2024/01/13 04:20:59;;;;;;;6.30;2.28;;;;;;;-148.88;100.00;-17125.47;5037041;28;20045;-83
2024/01/13 04:23:25;;;;;;;9.27;2.83;;;;;;;-148.88;100.00;-17125.47;5037029;28;20025;-83
2024/01/13 04:25:50;;;;;;;4.65;2.58;;;;;;;-148.88;100.00;-17125.47;5035422;28;20029;-83
2024/01/13 04:28:15;;;;;;;8.63;2.80;;;;;;;-148.88;100.00;-17125.47;5037211;28;20042;-83
2024/01/13 04:30:41;;;;;;;7.45;2.45;;;;;;;-148.88;100.00;-17125.47;5038562;28;20029;-83
2024/01/13 04:33:06;;;;;;;5.93;2.40;;;;;;;-148.88;100.00;-17125.47;5037710;28;20029;-83
2024/01/13 04:35:31;;;;;;;5.25;2.28;;;;;;;-148.88;100.00;-17125.47;5037130;28;20051;-83
2024/01/13 04:37:57;;;;;;;8.25;2.95;;;;;;;-148.88;100.00;-17125.47;5037236;28;20455;-83
2024/01/13 04:40:23;;;;;;;7.43;3.20;;;;;;;-148.88;100.00;-17125.47;5037687;28;20483;-83
2024/01/13 04:42:48;;;;;;;8.18;3.13;;;;;;;-148.88;100.00;-17125.47;5034879;28;20014;-83
2024/01/13 04:45:13;;;;;;;9.13;3.80;;;;;;;-148.88;100.00;-17125.47;5035804;28;20029;-82
2024/01/13 04:47:39;;;;;;;10.10;3.83;;;;;;;-148.88;100.00;-17125.47;5034559;28;20087;-82
2024/01/13 04:50:05;;;;;;;9.48;2.80;;;;;;;-148.88;100.00;-17125.47;5034636;28;20029;-83
2024/01/13 04:52:30;;;;;;;11.82;4.35;;;;;;;-148.88;100.00;-17125.47;5034486;28;20025;-83
2024/01/13 04:54:55;;;;;;;9.50;4.13;;;;;;;-148.88;100.00;-17125.47;5036377;28;20045;-83
2024/01/13 04:57:21;;;;;;;8.93;3.97;;;;;;;-148.88;100.00;-17125.47;5034612;28;20022;-83
2024/01/13 04:59:46;;;;;;;10.52;4.18;;;;;;;-148.88;100.00;-17125.47;5035949;28;20025;-83
2024/01/13 05:02:12;;;;;;;9.95;4.07;;;;;;;-148.88;100.00;-17125.47;5036012;28;20074;-83
2024/01/13 05:04:39;;;;;;;10.07;3.50;;;;;;;-148.88;100.00;-17125.47;5036272;28;20061;-83
2024/01/13 05:07:04;;;;;;;8.27;3.75;;;;;;;-148.88;100.00;-17125.47;5036402;28;20075;-83
2024/01/13 05:09:30;;;;;;;8.85;4.18;;;;;;;-148.88;100.00;-17125.47;5035975;28;20029;-83
2024/01/13 05:11:55;;;;;;;12.27;4.20;;;;;;;-148.88;100.00;-17125.47;5036015;28;20021;-83
2024/01/13 05:14:21;;;;;;;10.73;4.03;;;;;;;-148.88;100.00;-17125.47;5041887;23;20044;-84
2024/01/13 05:16:46;;;;;;;10.02;4.05;;;;;;;-148.88;100.00;-17125.47;5035166;28;20091;-85
2024/01/13 05:19:11;;;;;;;12.95;4.43;;;;;;;-148.88;100.00;-17125.47;5035228;28;20471;-85
2024/01/13 05:21:39;;;;;;;10.85;4.57;;;;;;;-148.88;100.00;-17125.47;5034244;28;20110;-84
2024/01/13 05:24:04;;;;;;;11.65;4.03;;;;;;;-148.88;100.00;-17125.47;5034833;28;20022;-85
2024/01/13 05:26:30;;;;;;;10.65;4.85;;;;;;;-148.88;100.00;-17125.47;5034401;28;20052;-85
2024/01/13 05:28:55;;;;;;;10.30;4.20;;;;;;;-148.88;100.00;-17125.47;5035237;28;20036;-85
2024/01/13 05:31:28;;;;;;;8.68;3.80;;;;;;;-148.88;100.00;-17125.47;5034166;28;20491;-85
2024/01/13 05:33:53;;;;;;;8.93;3.97;;;;;;;-148.88;100.00;-17125.47;5034944;28;20021;-85
2024/01/13 05:36:21;;;;;;;9.75;4.35;;;;;;;-148.88;100.00;-17125.47;5034950;28;20385;-85
2024/01/13 05:38:46;;;;;;;10.30;3.60;;;;;;;-148.88;100.00;-17125.47;5034871;28;20030;-85
2024/01/13 05:41:11;;;;;;;9.93;3.97;;;;;;;-148.88;100.00;-17125.47;5035169;28;20033;-86
2024/01/13 05:43:37;;;;;;;10.45;4.20;;;;;;;-148.88;100.00;-17125.47;5033601;28;20492;-86
2024/01/13 05:46:02;;;;;;;10.05;4.70;;;;;;;-148.88;100.00;-17125.47;5034720;28;20025;-85
2024/01/13 05:48:28;;;;;;;9.93;3.88;;;;;;;-148.88;100.00;-17125.47;5035346;28;20021;-86
2024/01/13 05:50:54;;;;;;;9.75;4.00;;;;;;;-148.88;100.00;-17125.47;5035138;28;20029;-85
2024/01/13 05:53:19;;;;;;;13.52;4.75;;;;;;;-148.88;100.00;-17125.47;5035250;28;20062;-85
2024/01/13 05:55:44;;;;;;;9.48;3.70;;;;;;;-148.88;100.00;-17125.47;5034836;28;20061;-86
2024/01/13 05:58:10;;;;;;;9.73;3.85;;;;;;;-148.88;100.00;-17125.47;5034423;28;20037;-86
2024/01/13 06:00:35;;;;;;;14.07;4.68;;;;;;;-148.88;100.00;-17125.47;5034602;28;20026;-86
2024/01/13 06:03:01;;;;;;;11.15;4.40;;;;;;;-148.88;100.00;-17125.47;5033261;28;20033;-85
2024/01/13 06:05:26;;;;;;;11.13;4.60;;;;;;;-148.88;100.00;-17125.47;5032634;28;20381;-85
2024/01/13 06:07:51;;;;;;;13.00;5.50;;;;;;;-148.88;100.00;-17125.47;5033109;28;20112;-84
2024/01/13 06:10:19;;;;;;;13.00;5.25;;;;;;;-148.88;100.00;-17125.47;5034091;28;20075;-84
2024/01/13 06:12:45;;;;;;;12.15;5.32;;;;;;;-148.88;100.00;-17125.47;5033777;28;20021;-85
2024/01/13 06:15:11;;;;;;;11.45;4.53;;;;;;;-148.88;100.00;-17125.47;5033188;28;20443;-85
2024/01/13 06:17:36;;;;;;;11.30;5.28;;;;;;;-148.88;100.00;-17125.47;5034091;28;20036;-85
2024/01/13 06:20:02;;;;;;;10.45;4.25;;;;;;;-148.88;100.00;-17125.47;5033847;28;20049;-85
2024/01/13 06:22:30;;;;;;;11.40;4.80;;;;;;;-148.88;100.00;-17125.47;5033791;28;20057;-85
2024/01/13 06:24:56;;;;;;;14.32;5.03;;;;;;;-148.88;100.00;-17125.47;5033031;28;20033;-85
2024/01/13 06:27:21;;;;;;;14.95;6.10;;;;;;;-148.88;100.00;-17125.47;5032658;28;20079;-85
2024/01/13 06:29:46;;;;;;;11.95;5.13;;;;;;;-148.88;100.00;-17125.47;5031699;28;20033;-85
2024/01/13 06:32:12;;;;;;;11.30;5.00;;;;;;;-148.88;100.00;-17125.47;5033216;28;20037;-85
2024/01/13 06:34:37;;;;;;;13.85;4.78;;;;;;;-148.88;100.00;-17125.47;5032158;28;20557;-86
2024/01/13 06:37:03;;;;;;;11.70;4.85;;;;;;;-148.88;100.00;-17125.47;5034111;28;20052;-88
2024/01/13 06:39:30;;;;;;;14.98;5.50;;;;;;;-148.88;100.00;-17125.47;5033098;28;20392;-88
2024/01/13 06:41:55;;;;;;;12.43;5.75;;;;;;;-148.88;100.00;-17125.47;5033365;28;20519;-88
2024/01/13 06:44:20;;;;;;;14.50;7.32;;;;;;;-148.88;100.00;-17125.47;5032844;28;20026;-88
2024/01/13 06:46:46;;;;;;;14.90;7.10;;;;;;;-148.88;100.00;-17125.47;5031762;28;20111;-88
2024/01/13 06:49:11;;;;;;;16.83;7.75;;;;;;;-148.88;100.00;-17125.47;5033311;28;20056;-88
2024/01/13 06:51:36;;;;;;;17.00;7.95;;;;;;;-148.88;100.00;-17125.47;5032227;28;20033;-88
2024/01/13 06:54:02;;;;;;;17.40;6.40;;;;;;;-148.88;100.00;-17125.47;5033928;28;20021;-87
2024/01/13 06:56:27;;;;;;;22.23;8.35;;;;;;;-148.88;100.00;-17125.47;5033364;28;20138;-87
2024/01/13 06:58:53;;;;;;;22.52;8.65;;;;;;;-148.88;100.00;-17125.47;5031751;28;20021;-87
2024/01/13 07:01:21;;;;;;;20.50;9.70;;;;;;;-148.88;100.00;-17125.47;5033207;28;20026;-86
2024/01/13 07:03:47;;;;;;;21.75;9.90;;;;;;;-148.88;100.00;-17125.47;5032217;28;20021;-87
2024/01/13 07:06:12;;;;;;;22.30;9.25;;;;;;;-148.88;100.00;-17125.47;5032005;28;20022;-87
2024/01/13 07:08:37;;;;;;;22.70;9.20;;;;;;;-148.88;100.00;-17125.47;5031828;28;20021;-87
2024/01/13 07:11:11;;;;;;;23.05;9.55;;;;;;;-148.88;100.00;-17125.47;5031839;28;20021;-88
2024/01/13 07:13:36;;;;;;;25.33;10.70;;;;;;;-148.88;100.00;-17125.47;5031662;28;20067;-87
2024/01/13 07:16:02;;;;;;;23.90;9.63;;;;;;;-148.88;100.00;-17125.47;5031704;28;20045;-87
2024/01/13 07:18:28;;;;;;;24.35;9.95;;;;;;;-148.88;100.00;-17125.47;5033115;28;20032;-87
2024/01/13 07:20:55;;;;;;;28.20;11.23;;;;;;;-148.88;100.00;-17125.47;5033009;28;20028;-86
2024/01/13 07:23:20;;;;;;;22.83;10.85;;;;;;;-148.88;100.00;-17125.47;5032554;28;20439;-86
2024/01/13 07:25:46;;;;;;;24.08;10.85;;;;;;;-148.88;100.00;-17125.47;5033852;28;20029;-86
2024/01/13 07:28:11;;;;;;;26.95;11.88;;;;;;;-148.88;100.00;-17125.47;5033806;28;20075;-87
2024/01/13 07:30:36;;;;;;;25.75;11.27;;;;;;;-148.88;100.00;-17125.47;5032215;28;20236;-87
2024/01/13 07:33:02;;;;;;;24.73;11.15;;;;;;;-148.88;100.00;-17125.47;5032697;28;20067;-87
2024/01/13 07:35:28;;;;;;;29.33;10.45;;;;;;;-148.88;100.00;-17125.47;5032790;28;20029;-86
2024/01/13 07:37:53;;;;;;;26.65;11.10;;;;;;;-148.88;100.00;-17125.47;5031709;28;20029;-87
2024/01/13 07:40:18;;;;;;;35.17;12.10;;;;;;;-148.88;100.00;-17125.47;5033707;28;20060;-85
2024/01/13 07:42:44;;;;;;;26.48;12.85;;;;;;;-148.88;100.00;-17125.47;5035584;28;20021;-86
2024/01/13 07:45:09;;;;;;;27.92;10.55;;;;;;;-148.88;100.00;-17125.47;5037591;28;20029;-87
2024/01/13 07:47:35;;;;;;;30.67;12.88;;;;;;;-148.88;100.00;-17125.47;5036985;28;20108;-86
2024/01/13 07:50:00;;;;;;;27.70;12.02;;;;;;;-148.88;100.00;-17125.47;5037261;28;20035;-86
2024/01/13 07:52:26;;;;;;;30.67;12.73;;;;;;;-148.88;100.00;-17125.47;5035408;28;20594;-86
2024/01/13 07:54:54;;;;;;;30.05;12.20;;;;;;;-148.88;100.00;-17125.47;5036260;28;20435;-86
2024/01/13 07:57:19;;;;;;;32.33;13.30;;;;;;;-148.88;100.00;-17125.47;5036919;28;20035;-87
2024/01/13 07:59:45;;;;;;;28.17;12.38;;;;;;;-148.88;100.00;-17125.47;5037051;28;20025;-86
2024/01/13 08:02:10;;;;;;;34.53;13.20;;;;;;;-148.88;100.00;-17125.47;5036691;28;20025;-86
2024/01/13 08:04:35;;;;;;;33.90;13.63;;;;;;;-148.88;100.00;-17125.47;5035623;28;20045;-86
2024/01/13 08:07:01;;;;;;;36.72;14.73;;;;;;;-148.88;100.00;-17125.47;5035295;28;20021;-86
2024/01/13 08:09:26;;;;;;;41.15;14.70;;;;;;;-148.88;100.00;-17125.47;5035499;28;20025;-86
2024/01/13 08:11:52;;;;;;;31.00;12.15;;;;;;;-148.88;100.00;-17125.47;5035767;28;20051;-87
2024/01/13 08:14:17;;;;;;;32.55;13.27;;;;;;;-148.88;100.00;-17125.47;5036556;28;20472;-85
2024/01/13 08:16:43;;;;;;;35.83;13.75;;;;;;;-148.88;100.00;-17125.47;5036784;28;20460;-86
2024/01/13 08:19:12;;;;;;;31.15;12.88;;;;;;;-148.88;100.00;-17125.47;5036435;28;20400;-86
2024/01/13 08:21:38;;;;;;;36.00;15.13;;;;;;;-148.88;100.00;-17125.47;5037290;28;20099;-86
2024/01/13 08:24:03;;;;;;;29.58;12.98;;;;;;;-148.88;100.00;-17125.47;5035090;28;20072;-86
2024/01/13 08:26:39;;;;;;;35.50;14.60;;;;;;;-148.88;100.00;-17125.47;5036811;28;20076;-86
2024/01/13 08:29:04;;;;;;;34.90;13.18;;;;;;;-148.88;100.00;-17125.47;5036433;28;20037;-86
2024/01/13 08:31:30;;;;;;;37.13;14.57;;;;;;;-148.88;100.00;-17125.47;5035780;28;20017;-86
2024/01/13 08:33:55;;;;;;;33.25;14.65;;;;;;;-148.88;100.00;-17125.47;5034878;28;20033;-87
2024/01/13 08:36:21;;;;;;;36.13;13.77;;;;;;;-148.88;100.00;-17125.47;5053344;28;20040;-86
2024/01/13 08:38:51;;;;;;;30.73;14.00;;;;;;;-148.88;100.00;-17125.47;5058034;28;20029;-85
2024/01/13 08:41:17;;;;;;;31.70;12.50;;;;;;;-148.88;100.00;-17125.47;5044232;28;20033;-86
2024/01/13 08:43:42;;;;;;;30.88;12.35;;;;;;;-148.88;100.00;-17125.47;5039937;28;20030;-87
2024/01/13 08:46:10;;;;;;;31.95;14.07;;;;;;;-148.88;100.00;-17125.47;5039396;28;20056;-86
2024/01/13 08:48:35;;;;;;;35.53;13.18;;;;;;;-148.88;100.00;-17125.47;5040468;28;20029;-88
2024/01/13 08:51:01;;;;;;;29.10;13.60;;;;;;;-148.88;100.00;-17125.47;5036679;28;20043;-88
2024/01/13 08:53:27;;;;;;;29.40;12.82;;;;;;;-148.88;100.00;-17125.47;5034146;28;20033;-88
2024/01/13 08:55:55;;;;;;;34.35;13.68;;;;;;;-148.88;100.00;-17125.47;5034681;28;20115;-87
2024/01/13 08:58:32;;;;;;;37.95;12.38;;;;;;;-148.88;100.00;-17125.47;5035185;28;20025;-86
2024/01/13 09:01:03;;;;;;;27.30;11.55;;;;;;;-148.88;100.00;-17125.47;5035067;28;20049;-87
2024/01/13 09:03:29;;;;;;;29.38;12.50;;;;;;;-148.88;100.00;-17125.47;5032948;28;20025;-87
2024/01/13 09:06:10;;;;;;;31.95;13.35;;;;;;;-148.88;100.00;-17125.47;5034081;28;20026;-87
2024/01/13 09:11:41;;;;;;;30.75;12.60;;;;;;;-148.88;100.00;-17125.47;5035708;28;20029;-87
2024/01/13 09:14:13;;;;;;;28.65;11.70;;;;;;;-148.88;100.00;-17125.47;5035167;28;20087;-86
2024/01/13 09:16:47;;;;;;;27.63;10.98;;;;;;;-148.88;100.00;-17125.47;5034017;28;20403;-87
2024/01/13 09:19:13;;;;;;;23.30;9.40;;;;;;;-148.88;100.00;-17125.47;5035047;28;20026;-87
2024/01/13 09:21:38;;;;;;;21.00;10.13;;;;;;;-148.88;100.00;-17125.47;5033921;28;20091;-87
2024/01/13 09:24:06;;;;;;;21.38;9.70;;;;;;;-148.88;100.00;-17125.47;5034048;28;20107;-87
2024/01/13 09:26:38;;;;;;;28.60;10.75;;;;;;;-148.88;100.00;-17125.47;5033842;28;20025;-87
2024/01/13 09:29:04;;;;;;;24.85;9.27;;;;;;;-148.88;100.00;-17125.47;5034291;28;20403;-87
2024/01/13 09:31:34;;;;;;;24.13;9.73;;;;;;;-148.88;100.00;-17125.47;5033228;28;20451;-87
2024/01/13 09:34:11;;;;;;;23.67;9.13;;;;;;;-148.88;100.00;-17125.47;5032662;28;20080;-87
2024/01/13 09:37:02;;;;;;;26.95;9.52;;;;;;;-148.88;100.00;-17125.47;5034811;28;20032;-87
2024/01/13 09:39:42;;;;;;;18.10;8.35;;;;;;;-148.88;100.00;-17125.47;5012883;28;20081;-87
2024/01/13 09:42:27;;;;;;;21.23;9.25;;;;;;;-148.88;100.00;-17125.47;5032062;28;20037;-87
2024/01/13 09:45:20;;;;;;;19.90;7.97;;;;;;;-148.88;100.00;-17125.47;5034049;28;20029;-87
2024/01/13 09:47:46;;;;;;;21.85;9.20;;;;;;;-148.88;100.00;-17125.47;5034779;28;20037;-88
2024/01/13 09:50:29;;;;;;;18.80;8.30;;;;;;;-148.88;100.00;-17125.47;5033538;28;20079;-87
2024/01/13 09:52:56;;;;;;;24.63;8.43;;;;;;;-148.88;100.00;-17125.47;5033579;28;20021;-87
2024/01/13 09:55:22;;;;;;;19.02;8.30;;;;;;;-148.88;100.00;-17125.47;5034421;28;20035;-87
2024/01/13 09:57:48;;;;;;;22.63;9.82;;;;;;;-148.88;100.00;-17125.47;5035595;28;20108;-85
2024/01/13 10:00:14;;;;;;;20.80;9.48;;;;;;;-148.88;100.00;-17125.47;5033641;28;20385;-86
2024/01/13 10:02:39;;;;;;;22.83;8.70;;;;;;;-148.88;100.00;-17125.47;5031914;28;20067;-86
2024/01/13 10:05:12;;;;;;;20.98;8.93;;;;;;;-148.88;100.00;-17125.47;5035622;28;20018;-86
2024/01/13 10:07:43;;;;;;;22.97;9.33;;;;;;;-148.88;100.00;-17125.47;5034812;28;20036;-86
2024/01/13 10:10:09;;;;;;;20.65;10.40;;;;;;;-148.88;100.00;-17125.47;5034887;28;20661;-85
2024/01/13 10:12:35;;;;;;;22.83;8.77;;;;;;;-148.88;100.00;-17125.47;5033447;28;20033;-86
2024/01/13 10:15:03;;;;;;;23.05;9.35;;;;;;;-148.88;100.00;-17125.47;5033921;28;20037;-86
2024/01/13 10:17:32;;;;;;;25.40;10.40;;;;;;;-148.88;100.00;-17125.47;5032808;28;20030;-86
2024/01/13 10:19:57;;;;;;;23.27;9.20;;;;;;;-148.88;100.00;-17125.47;5034290;28;20026;-86
2024/01/13 10:22:23;;;;;;;18.90;8.35;;;;;;;-148.88;100.00;-17125.47;5032440;28;20412;-86
2024/01/13 10:24:48;;;;;;;18.60;8.80;;;;;;;-148.88;100.00;-17125.47;5033659;28;20108;-85
2024/01/13 10:27:14;;;;;;;20.67;9.00;;;;;;;-148.88;100.00;-17125.47;5033762;28;20025;-86
2024/01/13 10:29:43;;;;;;;21.38;10.10;;;;;;;-148.88;100.00;-17125.47;5032545;28;20029;-85
2024/01/13 10:32:10;;;;;;;18.85;7.78;;;;;;;-148.88;100.00;-17125.47;5034301;28;20049;-85
2024/01/13 10:34:36;;;;;;;23.52;11.23;;;;;;;-148.88;100.00;-17125.47;5034001;28;20515;-85
2024/01/13 10:37:11;;;;;;;25.92;10.88;;;;;;;-148.88;100.00;-17125.47;5033213;28;20052;-85
2024/01/13 10:39:36;;;;;;;20.27;9.10;;;;;;;-148.88;100.00;-17125.47;5033743;28;20091;-86
2024/01/13 10:42:06;;;;;;;24.40;11.70;;;;;;;-148.88;100.00;-17125.47;5032843;28;20021;-85
2024/01/13 10:44:40;;;;;;;22.38;10.27;;;;;;;-148.88;100.00;-17125.47;5033715;28;20029;-85
2024/01/13 10:47:15;;;;;;;26.02;10.80;;;;;;;-148.88;100.00;-17125.47;5032433;28;20025;-85
2024/01/13 10:49:46;;;;;;;26.40;10.77;;;;;;;-148.88;100.00;-17125.47;5032144;28;20029;-86
2024/01/13 10:52:16;;;;;;;25.15;10.68;;;;;;;-148.88;100.00;-17125.47;5031863;28;20017;-85